createdAt,value
2023-02-11T00:01:33.014Z,72.40
2023-02-11T00:04:02.017Z,73.50
2023-02-11T00:06:31.807Z,66.50
2023-02-11T00:08:59.652Z,57.70
2023-02-11T00:11:31.966Z,65.50
2023-02-11T00:14:02.573Z,64.70
2023-02-11T00:16:32.262Z,69.70
2023-02-11T00:19:01.201Z,58.20
2023-02-11T00:21:29.766Z,68.80
2023-02-11T00:23:59.786Z,63.50
2023-02-11T00:26:31.451Z,70.50
2023-02-11T00:29:00.983Z,66.10
2023-02-11T00:31:29.726Z,72.80
2023-02-11T00:33:57.718Z,70.10
2023-02-11T00:36:27.748Z,74.70
2023-02-11T00:38:58.166Z,70.90
2023-02-11T00:41:26.073Z,75.30
2023-02-11T00:43:53.981Z,77.40
2023-02-11T00:46:21.866Z,85.20
2023-02-11T00:48:51.680Z,75.70
2023-02-11T00:51:22.192Z,73.40
2023-02-11T00:53:49.917Z,76.20
2023-02-11T00:56:17.668Z,78.00
2023-02-11T00:58:45.408Z,77.30
2023-02-11T01:01:13.925Z,75.60
2023-02-11T01:03:44.122Z,89.40
2023-02-11T01:06:12.289Z,79.60
2023-02-11T01:08:40.148Z,81.70
2023-02-11T01:11:15.837Z,93.40
2023-02-11T01:13:47.559Z,76.20
2023-02-11T01:16:17.300Z,81.20
2023-02-11T01:18:46.549Z,86.80
2023-02-11T01:21:14.839Z,83.50
2023-02-11T01:23:44.060Z,75.30
2023-02-11T01:26:13.348Z,75.20
2023-02-11T01:28:41.529Z,85.70
2023-02-11T01:31:09.456Z,83.40
2023-02-11T01:33:37.254Z,80.70
2023-02-11T01:36:07.943Z,75.70
2023-02-11T01:38:35.871Z,90.80
2023-02-11T01:41:06.820Z,74.70
2023-02-11T01:43:39.221Z,78.40
2023-02-11T01:46:06.953Z,83.30
2023-02-11T01:48:39.014Z,87.90
2023-02-11T01:51:13.497Z,73.30
2023-02-11T01:53:58.647Z,71.20
2023-02-11T01:56:44.655Z,75.20
2023-02-11T01:59:22.527Z,78.50
2023-02-11T02:01:57.076Z,79.30
2023-02-11T02:04:31.783Z,80.70
2023-02-11T02:07:05.565Z,80.80
2023-02-11T02:09:40.345Z,82.60
2023-02-11T02:12:08.078Z,72.30
2023-02-11T02:14:40.774Z,76.00
2023-02-11T02:17:25.063Z,79.10
2023-02-11T02:20:16.446Z,81.10
2023-02-11T02:23:05.996Z,73.50
2023-02-11T02:26:05.621Z,76.80
2023-02-11T02:29:02.526Z,77.20
2023-02-11T02:32:02.672Z,72.40
2023-02-11T02:34:50.230Z,82.20
2023-02-11T02:37:50.117Z,73.70
2023-02-11T02:40:26.921Z,77.20
2023-02-11T02:42:56.337Z,77.30
2023-02-11T02:45:24.733Z,77.10
2023-02-11T02:47:52.589Z,75.40
2023-02-11T02:50:30.244Z,73.10
2023-02-11T02:53:27.115Z,74.10
2023-02-11T02:56:12.087Z,71.60
2023-02-11T02:59:18.331Z,65.20
2023-02-11T03:02:04.842Z,66.20
2023-02-11T03:04:55.129Z,74.10
2023-02-11T03:07:32.144Z,73.70
2023-02-11T03:10:10.624Z,73.20
2023-02-11T03:12:41.992Z,75.10
2023-02-11T03:15:11.992Z,69.80
2023-02-11T03:17:45.116Z,63.70
2023-02-11T03:20:16.227Z,67.70
2023-02-11T03:23:04.047Z,67.10
2023-02-11T03:25:41.573Z,69.30
2023-02-11T03:28:30.347Z,79.80
2023-02-11T03:31:14.120Z,75.30
2023-02-11T03:34:03.267Z,67.10
2023-02-11T03:36:45.947Z,69.50
2023-02-11T03:39:19.704Z,71.40
2023-02-11T03:41:49.998Z,63.80
2023-02-11T03:44:20.776Z,66.90
2023-02-11T03:46:52.046Z,66.10
2023-02-11T03:49:22.408Z,67.20
2023-02-11T03:51:53.213Z,70.70
2023-02-11T03:54:30.576Z,66.70
2023-02-11T03:57:01.014Z,67.40
2023-02-11T03:59:29.198Z,64.60
2023-02-11T04:01:59.517Z,72.60
2023-02-11T04:04:27.289Z,55.60
2023-02-11T04:06:55.041Z,65.30
2023-02-11T04:09:22.738Z,67.20
2023-02-11T04:11:50.438Z,67.10
2023-02-11T04:14:18.139Z,68.60
2023-02-11T04:16:45.933Z,69.60
2023-02-11T04:19:13.720Z,63.20
2023-02-11T04:21:41.418Z,73.90
2023-02-11T04:24:09.314Z,73.20
2023-02-11T04:26:37.324Z,78.60
2023-02-11T04:29:05.042Z,66.60
2023-02-11T04:31:32.787Z,72.30
2023-02-11T04:34:00.548Z,70.60
2023-02-11T04:36:28.245Z,63.30
2023-02-11T04:38:55.944Z,83.20
2023-02-11T04:41:23.681Z,69.40
2023-02-11T04:43:51.401Z,70.50
2023-02-11T04:46:19.190Z,68.30
2023-02-11T04:48:46.978Z,76.60
2023-02-11T04:51:15.615Z,70.50
2023-02-11T04:53:43.737Z,69.10
2023-02-11T04:56:11.477Z,69.80
2023-02-11T04:58:39.209Z,76.40
2023-02-11T05:01:12.146Z,73.40
2023-02-11T05:03:40.461Z,75.80
2023-02-11T05:06:10.337Z,65.70
2023-02-11T05:08:38.247Z,74.60
2023-02-11T05:11:07.499Z,68.40
2023-02-11T05:13:35.398Z,81.20
2023-02-11T05:16:03.221Z,89.40
2023-02-11T05:18:30.955Z,83.40
2023-02-11T05:20:58.653Z,79.30
2023-02-11T05:23:26.436Z,80.70
2023-02-11T05:25:54.134Z,78.60
2023-02-11T05:28:21.930Z,74.70
2023-02-11T05:30:49.757Z,77.50
2023-02-11T05:33:17.467Z,85.50
2023-02-11T05:35:45.271Z,77.50
2023-02-11T05:38:13.046Z,81.30
2023-02-11T05:40:41.286Z,72.50
2023-02-11T05:43:09.115Z,85.40
2023-02-11T05:45:37.089Z,73.00
2023-02-11T05:48:05.041Z,83.20
2023-02-11T05:50:32.716Z,89.10
2023-02-11T05:53:00.447Z,82.20
2023-02-11T05:55:28.512Z,87.60
2023-02-11T05:57:56.208Z,77.20
2023-02-11T06:00:24.149Z,89.00
2023-02-11T06:02:51.994Z,84.10
2023-02-11T06:05:20.066Z,81.80
2023-02-11T06:07:47.771Z,86.70
2023-02-11T06:10:15.492Z,79.40
2023-02-11T06:12:43.174Z,95.40
2023-02-11T06:15:11.010Z,89.80
2023-02-11T06:17:38.730Z,85.30
2023-02-11T06:20:08.543Z,90.50
2023-02-11T06:22:36.647Z,98.30
2023-02-11T06:25:05.286Z,82.40
2023-02-11T06:27:33.057Z,93.10
2023-02-11T06:30:00.791Z,83.00
2023-02-11T06:32:46.133Z,88.70
2023-02-11T06:35:14.859Z,88.10
2023-02-11T06:37:43.023Z,91.80
2023-02-11T06:40:11.747Z,83.30
2023-02-11T06:42:39.735Z,91.60
2023-02-11T06:45:12.874Z,86.80
2023-02-11T06:47:41.366Z,87.10
2023-02-11T06:50:14.092Z,89.40
2023-02-11T06:52:41.793Z,108.90
2023-02-11T06:55:09.638Z,96.50
2023-02-11T06:57:37.416Z,80.90
2023-02-11T07:00:05.964Z,91.50
2023-02-11T07:02:34.021Z,93.60
2023-02-11T07:05:01.808Z,99.80
2023-02-11T07:07:31.288Z,98.10
2023-02-11T07:10:00.179Z,89.50
2023-02-11T07:12:27.915Z,90.30
2023-02-11T07:14:56.721Z,89.90
2023-02-11T07:17:24.461Z,94.80
2023-02-11T07:19:52.211Z,102.00
2023-02-11T07:22:20.038Z,89.80
2023-02-11T07:24:47.729Z,103.50
2023-02-11T07:27:15.455Z,91.30
2023-02-11T07:29:43.382Z,78.80
2023-02-11T07:32:11.148Z,75.60
2023-02-11T07:34:39.008Z,83.30
2023-02-11T07:37:07.633Z,86.90
2023-02-11T07:39:35.376Z,88.70
2023-02-11T07:42:04.178Z,92.60
2023-02-11T07:44:33.382Z,77.90
2023-02-11T07:47:01.455Z,82.10
2023-02-11T07:49:29.623Z,82.50
2023-02-11T07:51:57.312Z,89.60
2023-02-11T07:54:25.053Z,78.30
2023-02-11T07:56:52.897Z,84.40
2023-02-11T07:59:20.611Z,93.40
2023-02-11T08:01:48.367Z,92.60
2023-02-11T08:04:16.094Z,83.80
2023-02-11T08:06:43.860Z,82.90
2023-02-11T08:09:18.900Z,81.20
2023-02-11T08:11:46.605Z,96.10
2023-02-11T08:14:14.473Z,74.00
2023-02-11T08:16:46.055Z,73.90
2023-02-11T08:19:16.171Z,82.40
2023-02-11T08:21:44.377Z,83.70
2023-02-11T08:24:12.458Z,81.00
2023-02-11T08:26:41.008Z,81.40
2023-02-11T08:29:12.208Z,81.30
2023-02-11T08:31:42.994Z,77.00
2023-02-11T08:34:14.037Z,79.10
2023-02-11T08:36:42.488Z,85.80
2023-02-11T08:39:28.422Z,76.40
2023-02-11T08:41:56.824Z,78.70
2023-02-11T08:44:24.755Z,84.60
2023-02-11T08:46:53.550Z,92.70
2023-02-11T08:49:22.113Z,87.40
2023-02-11T08:51:50.197Z,79.80
2023-02-11T08:54:18.563Z,86.00
2023-02-11T08:56:46.441Z,84.60
2023-02-11T08:59:15.480Z,68.90
2023-02-11T09:01:44.411Z,78.70
2023-02-11T09:04:12.912Z,80.50
2023-02-11T09:06:41.037Z,76.80
2023-02-11T09:09:14.676Z,72.50
2023-02-11T09:11:44.302Z,68.40
2023-02-11T09:14:19.310Z,72.00
2023-02-11T09:16:48.236Z,77.90
2023-02-11T09:19:16.951Z,80.10
2023-02-11T09:21:44.974Z,75.10
2023-02-11T09:24:12.787Z,67.50
2023-02-11T09:26:43.154Z,80.90
2023-02-11T09:29:10.866Z,76.90
2023-02-11T09:31:38.743Z,73.10
2023-02-11T09:34:07.025Z,72.70
2023-02-11T09:36:38.383Z,69.10
2023-02-11T09:39:11.167Z,65.00
2023-02-11T09:41:42.542Z,69.70
2023-02-11T09:44:22.393Z,66.80
2023-02-11T09:46:58.467Z,64.10
2023-02-11T09:49:45.351Z,65.60
2023-02-11T09:52:21.654Z,65.30
2023-02-11T09:55:14.684Z,63.80
2023-02-11T09:57:42.422Z,66.90
2023-02-11T10:00:33.333Z,68.60
2023-02-11T10:03:08.600Z,68.90
2023-02-11T10:05:48.968Z,71.60
2023-02-11T10:08:32.067Z,66.00
2023-02-11T10:11:31.176Z,62.60
2023-02-11T10:14:15.932Z,64.90
2023-02-11T10:17:09.688Z,62.40
2023-02-11T10:20:02.441Z,66.70
2023-02-11T10:22:46.152Z,64.50
2023-02-11T10:25:34.769Z,64.80
2023-02-11T10:28:19.022Z,65.70
2023-02-11T10:31:02.968Z,67.30
2023-02-11T10:33:40.440Z,65.70
2023-02-11T10:36:12.124Z,64.40
2023-02-11T10:38:40.281Z,74.70
2023-02-11T10:41:15.294Z,71.60
2023-02-11T10:43:43.609Z,60.60
2023-02-11T10:46:18.417Z,64.50
2023-02-11T10:48:52.732Z,61.30
2023-02-11T10:51:26.519Z,60.60
2023-02-11T10:54:19.439Z,65.10
2023-02-11T10:56:58.380Z,57.00
2023-02-11T10:59:43.290Z,54.60
2023-02-11T11:02:34.281Z,56.80
2023-02-11T11:05:28.253Z,61.20
2023-02-11T11:07:59.338Z,60.90
2023-02-11T11:10:33.166Z,63.80
2023-02-11T11:13:01.409Z,55.40
2023-02-11T11:15:31.615Z,65.90
2023-02-11T11:18:22.504Z,65.90
2023-02-11T11:21:18.270Z,63.60
2023-02-11T11:24:03.697Z,66.40
2023-02-11T11:26:48.504Z,60.30
2023-02-11T11:29:38.615Z,57.70
2023-02-11T11:32:23.413Z,56.10
2023-02-11T12:09:52.928Z,40.50
2023-02-11T12:12:32.417Z,41.30
2023-02-11T12:15:16.717Z,43.00
2023-02-11T12:18:02.097Z,48.00
2023-02-11T12:20:51.723Z,47.80
2023-02-11T12:23:19.606Z,42.50
2023-02-11T12:26:09.157Z,43.40
2023-02-11T12:28:40.401Z,38.20
2023-02-11T12:31:23.870Z,43.00
2023-02-11T12:34:07.528Z,39.80
2023-02-11T12:36:54.391Z,37.40
2023-02-11T12:39:27.040Z,33.70
2023-02-11T12:42:39.010Z,34.80
2023-02-11T12:45:12.795Z,42.70
2023-02-11T12:47:57.397Z,32.60
2023-02-11T12:50:57.086Z,37.90
2023-02-11T12:53:46.670Z,37.60
2023-02-11T12:56:14.353Z,31.40
2023-02-11T12:58:45.671Z,34.30
2023-02-11T13:01:23.185Z,34.30
2023-02-11T13:04:08.467Z,37.50
2023-02-11T13:06:42.223Z,35.70
2023-02-11T13:09:20.929Z,32.80
2023-02-11T13:11:51.959Z,34.60
2023-02-11T13:14:29.235Z,36.10
2023-02-11T13:16:58.723Z,30.80
2023-02-11T13:19:31.671Z,35.20
2023-02-11T13:22:05.230Z,35.90
2023-02-11T13:25:06.036Z,30.50
2023-02-11T13:27:58.374Z,32.60
2023-02-11T13:30:35.405Z,29.30
2023-02-11T13:33:06.568Z,33.50
2023-02-11T13:35:40.109Z,31.10
2023-02-11T13:38:24.661Z,33.90
2023-02-11T13:41:16.353Z,28.10
2023-02-11T13:43:44.964Z,29.00
2023-02-11T13:46:14.700Z,25.40
2023-02-11T13:48:49.870Z,24.50
2023-02-11T13:51:38.785Z,23.60
2023-02-11T13:54:08.838Z,28.80
2023-02-11T13:56:39.327Z,25.80
2023-02-11T13:59:33.431Z,23.80
2023-02-11T14:05:20.363Z,25.80
2023-02-11T14:08:26.088Z,27.50
2023-02-11T14:10:55.349Z,24.10
2023-02-11T14:13:55.001Z,23.00
2023-02-11T14:16:37.627Z,25.00
2023-02-11T14:19:08.463Z,23.20
2023-02-11T14:21:42.499Z,25.20
2023-02-11T14:24:11.548Z,20.50
2023-02-11T14:27:01.309Z,19.50
2023-02-11T14:29:57.321Z,21.60
2023-02-11T14:32:56.883Z,24.00
2023-02-11T14:35:27.387Z,21.10
2023-02-11T14:37:57.796Z,19.90
2023-02-11T14:40:51.147Z,18.30
2023-02-11T14:43:24.279Z,14.40
2023-02-11T14:45:55.802Z,17.70
2023-02-11T14:48:39.300Z,19.00
2023-02-11T14:51:15.376Z,17.00
2023-02-11T14:53:48.172Z,17.20
2023-02-11T14:56:34.466Z,16.60
2023-02-11T14:59:02.842Z,17.90
2023-02-11T15:01:32.546Z,20.90
2023-02-11T15:04:05.820Z,17.20
2023-02-11T15:06:42.581Z,16.90
2023-02-11T15:09:20.135Z,14.80
2023-02-11T15:11:49.295Z,17.30
2023-02-11T15:14:34.966Z,18.50
2023-02-11T15:17:06.179Z,22.00
2023-02-11T15:19:39.618Z,18.50
2023-02-11T15:22:19.913Z,22.70
2023-02-11T15:25:14.701Z,18.70
2023-02-11T15:27:46.044Z,23.30
2023-02-11T15:30:31.612Z,14.90
2023-02-11T15:33:05.552Z,17.30
2023-02-11T15:35:41.005Z,17.10
2023-02-11T15:38:12.811Z,19.30
2023-02-11T15:40:40.571Z,19.50
2023-02-11T15:43:10.561Z,24.80
2023-02-11T15:45:52.558Z,25.10
2023-02-11T15:48:47.546Z,17.50
2023-02-11T15:51:33.217Z,21.20
2023-02-11T15:54:03.941Z,21.10
2023-02-11T15:56:51.552Z,24.80
2023-02-11T15:59:35.435Z,24.60
2023-02-11T16:02:15.216Z,33.80
2023-02-11T16:05:01.324Z,26.90
2023-02-11T16:07:47.112Z,27.80
2023-02-11T16:10:33.559Z,33.70
2023-02-11T16:13:07.271Z,26.80
2023-02-11T16:15:35.067Z,24.70
2023-02-11T16:18:13.027Z,28.80
2023-02-11T16:20:41.046Z,31.10
2023-02-11T16:23:22.021Z,27.20
2023-02-11T16:25:55.688Z,25.60
2023-02-11T16:28:23.540Z,31.30
2023-02-11T16:30:54.376Z,31.80
2023-02-11T16:33:22.371Z,42.20
2023-02-11T16:35:50.182Z,29.80
2023-02-11T16:38:18.571Z,24.50
2023-02-11T16:40:49.283Z,20.10
2023-02-11T16:43:19.965Z,26.50
2023-02-11T16:45:48.664Z,22.00
2023-02-11T16:48:19.440Z,22.30
2023-02-11T16:50:53.148Z,24.50
2023-02-11T16:53:23.558Z,21.80
2023-02-11T16:55:52.973Z,28.10
2023-02-11T16:58:20.689Z,25.70
2023-02-11T17:00:49.229Z,36.40
2023-02-11T17:03:22.900Z,27.80
2023-02-11T17:05:55.635Z,27.40
2023-02-11T17:08:23.926Z,27.90
2023-02-11T17:10:52.050Z,26.90
2023-02-11T17:13:20.149Z,29.20
2023-02-11T17:15:47.911Z,32.90
2023-02-11T17:18:15.617Z,23.30
2023-02-11T17:20:43.344Z,32.70
2023-02-11T17:23:11.120Z,26.30
2023-02-11T17:25:40.598Z,30.20
2023-02-11T17:28:09.615Z,27.40
2023-02-11T17:30:41.440Z,24.20
2023-02-11T17:33:09.434Z,25.50
2023-02-11T17:35:39.566Z,21.40
2023-02-11T17:38:07.308Z,25.80
2023-02-11T17:40:35.035Z,32.70
2023-02-11T17:43:03.174Z,30.80
2023-02-11T17:45:30.982Z,31.90
2023-02-11T17:47:58.714Z,30.10
2023-02-11T17:50:29.131Z,27.80
2023-02-11T17:52:57.198Z,29.40
2023-02-11T17:55:24.962Z,34.90
2023-02-11T17:57:52.757Z,30.10
2023-02-11T18:00:21.314Z,28.10
2023-02-11T18:02:49.074Z,25.40
2023-02-11T18:05:16.970Z,25.50
2023-02-11T18:07:44.778Z,32.00
2023-02-11T18:10:12.540Z,25.50
2023-02-11T18:12:40.307Z,22.20
2023-02-11T18:15:08.384Z,30.80
2023-02-11T18:17:36.136Z,30.90
2023-02-11T18:20:04.864Z,43.50
2023-02-11T18:22:38.431Z,47.80
2023-02-11T18:25:09.065Z,73.80
2023-02-11T18:27:37.125Z,74.60
2023-02-11T18:30:06.544Z,64.10
2023-02-11T18:32:34.319Z,64.70
2023-02-11T18:35:02.284Z,56.00
2023-02-11T18:37:29.978Z,36.40
2023-02-11T18:39:57.712Z,30.10
2023-02-11T18:42:25.454Z,37.40
2023-02-11T18:44:53.166Z,38.10
2023-02-11T18:47:20.881Z,53.70
2023-02-11T18:49:48.615Z,40.40
2023-02-11T18:52:16.326Z,32.90
2023-02-11T18:54:44.161Z,33.10
2023-02-11T18:57:15.423Z,42.80
2023-02-11T18:59:44.230Z,32.90
2023-02-11T19:02:12.033Z,33.60
2023-02-11T19:04:39.838Z,25.70
2023-02-11T19:07:07.591Z,15.90
2023-02-11T19:09:35.688Z,15.30
2023-02-11T19:12:04.576Z,13.90
2023-02-11T19:14:34.070Z,16.20
2023-02-11T19:17:07.414Z,8.40
2023-02-11T19:19:36.450Z,11.80
2023-02-11T19:22:10.514Z,11.60
2023-02-11T19:24:39.118Z,4.20
2023-02-11T19:27:06.906Z,9.00
2023-02-11T19:29:35.076Z,8.70
2023-02-11T19:32:06.002Z,5.40
2023-02-11T19:34:40.985Z,7.10
2023-02-11T19:37:12.512Z,8.70
2023-02-11T19:39:42.452Z,13.50
2023-02-11T19:42:11.083Z,5.30
2023-02-11T19:44:38.872Z,5.20
2023-02-11T19:47:06.872Z,4.80
2023-02-11T19:49:34.610Z,4.40
2023-02-11T19:52:02.346Z,5.50
2023-02-11T19:54:30.249Z,7.80
2023-02-11T19:56:59.127Z,7.40
2023-02-11T19:59:26.927Z,6.40
2023-02-11T20:01:54.835Z,11.80
2023-02-11T20:04:24.587Z,3.40
2023-02-11T20:06:52.598Z,4.30
2023-02-11T20:09:21.644Z,7.10
2023-02-11T20:11:49.819Z,14.90
2023-02-11T20:14:17.580Z,11.50
2023-02-11T20:16:49.599Z,12.90
2023-02-11T20:19:21.229Z,5.70
2023-02-11T20:21:52.874Z,7.90
2023-02-11T20:24:21.338Z,8.70
2023-02-11T20:26:49.462Z,13.90
2023-02-11T20:29:18.122Z,11.50
2023-02-11T20:31:46.280Z,5.80
2023-02-11T20:34:16.892Z,9.40
2023-02-11T20:36:51.731Z,6.60
2023-02-11T20:39:22.393Z,7.70
2023-02-11T20:41:51.687Z,8.10
2023-02-11T20:44:23.924Z,7.60
2023-02-11T20:46:54.208Z,19.80
2023-02-11T20:49:24.467Z,14.20
2023-02-11T20:51:53.801Z,18.80
2023-02-11T20:54:23.262Z,20.10
2023-02-11T20:56:52.015Z,11.30
2023-02-11T20:59:21.188Z,17.60
2023-02-11T21:01:53.593Z,10.70
2023-02-11T21:04:24.681Z,10.80
2023-02-11T21:06:57.049Z,10.10
2023-02-11T21:09:28.130Z,6.00
2023-02-11T21:11:55.948Z,8.60
2023-02-11T21:14:25.440Z,9.40
2023-02-11T21:16:53.658Z,11.70
2023-02-11T21:19:21.579Z,8.00
2023-02-11T21:21:49.438Z,10.90
2023-02-11T21:24:17.170Z,7.70
2023-02-11T21:26:44.963Z,8.80
2023-02-11T21:29:12.807Z,12.50
2023-02-11T21:31:40.709Z,8.60
2023-02-11T21:34:09.978Z,10.40
2023-02-11T21:36:37.789Z,5.80
2023-02-11T21:39:05.949Z,9.60
2023-02-11T21:41:33.748Z,8.70
2023-02-11T21:44:01.603Z,9.60
2023-02-11T21:46:29.561Z,13.20
2023-02-11T21:48:58.088Z,12.50
2023-02-11T21:51:26.645Z,11.30
2023-02-11T21:53:55.504Z,10.10
2023-02-11T21:56:26.267Z,9.60
2023-02-11T21:58:55.786Z,12.90
2023-02-11T22:01:35.225Z,8.00
2023-02-11T22:04:03.124Z,13.60
2023-02-11T22:06:33.500Z,16.70
2023-02-11T22:09:07.118Z,14.00
2023-02-11T22:11:35.545Z,6.90
2023-02-11T22:14:03.506Z,14.20
2023-02-11T22:16:31.652Z,6.90
2023-02-11T22:19:02.135Z,8.00
2023-02-11T22:21:30.667Z,10.80
2023-02-11T22:23:58.495Z,6.60
2023-02-11T22:26:27.637Z,5.30
2023-02-11T22:28:56.448Z,6.20
2023-02-11T22:31:28.061Z,7.80
2023-02-11T22:33:57.126Z,6.00
2023-02-11T22:36:29.242Z,12.00
2023-02-11T22:39:04.741Z,10.50
2023-02-11T22:41:33.037Z,8.30
2023-02-11T22:44:01.308Z,12.90
2023-02-11T22:46:29.036Z,7.70
2023-02-11T22:48:56.816Z,7.00
2023-02-11T22:51:27.271Z,7.60
2023-02-11T22:54:01.064Z,4.00
2023-02-11T22:56:30.932Z,4.20
2023-02-11T22:59:04.292Z,9.80
2023-02-11T23:01:32.308Z,6.80
2023-02-11T23:04:02.340Z,8.40
2023-02-11T23:06:30.517Z,7.10
2023-02-11T23:08:58.690Z,7.90
2023-02-11T23:11:31.063Z,6.20
2023-02-11T23:14:00.560Z,9.90
2023-02-11T23:16:33.915Z,8.50
2023-02-11T23:19:05.855Z,10.10
2023-02-11T23:21:36.292Z,9.00
2023-02-11T23:24:07.845Z,10.90
2023-02-11T23:26:39.326Z,10.30
2023-02-11T23:29:07.382Z,12.50
2023-02-11T23:31:39.919Z,9.40
2023-02-11T23:34:08.803Z,8.40
2023-02-11T23:36:36.918Z,7.30
2023-02-11T23:39:05.762Z,10.60
2023-02-11T23:41:33.545Z,6.90
2023-02-11T23:44:01.558Z,9.80
2023-02-11T23:46:29.468Z,11.90
2023-02-11T23:48:57.387Z,11.70
2023-02-11T23:51:25.224Z,10.10
2023-02-11T23:53:54.670Z,9.90
2023-02-11T23:56:27.814Z,5.30
2023-02-11T23:58:58.740Z,8.60
